createdAt,value
2017-12-19T00:01:04.541Z,0.30
2017-12-19T00:03:39.304Z,0.40
2017-12-19T00:06:14.160Z,0.50
2017-12-19T00:08:48.408Z,0.50
2017-12-19T00:11:22.308Z,0.60
2017-12-19T00:13:56.601Z,0.60
2017-12-19T00:16:31.521Z,0.70
2017-12-19T00:19:05.330Z,0.70
2017-12-19T00:21:39.722Z,0.70
2017-12-19T00:24:14.379Z,0.70
2017-12-19T00:26:49.928Z,0.80
2017-12-19T00:29:25.164Z,0.80
2017-12-19T00:32:00.013Z,0.70
2017-12-19T00:34:34.099Z,0.70
2017-12-19T00:37:08.386Z,0.70
2017-12-19T00:39:42.668Z,0.60
2017-12-19T00:42:17.816Z,0.50
2017-12-19T00:44:52.330Z,0.30
2017-12-19T00:47:26.346Z,0.30
2017-12-19T00:50:00.645Z,0.30
2017-12-19T00:52:34.501Z,0.10
2017-12-19T00:55:08.899Z,0.20
2017-12-19T00:57:43.162Z,0.30
2017-12-19T01:00:18.170Z,0.40
2017-12-19T01:02:52.802Z,0.40
2017-12-19T01:05:26.740Z,0.50
2017-12-19T01:08:01.018Z,0.30
2017-12-19T01:10:35.216Z,0.20
2017-12-19T01:13:10.643Z,0.20
2017-12-19T01:15:44.829Z,0.20
2017-12-19T01:18:19.194Z,0.30
2017-12-19T01:20:53.436Z,0.40
2017-12-19T01:23:27.587Z,0.40
2017-12-19T01:26:02.451Z,0.40
2017-12-19T01:28:36.258Z,0.40
2017-12-19T01:31:10.349Z,0.50
2017-12-19T01:33:47.180Z,0.20
2017-12-19T01:36:22.080Z,0.20
2017-12-19T01:38:56.155Z,0.40
2017-12-19T01:41:31.005Z,0.40
2017-12-19T01:44:06.094Z,0.40
2017-12-19T01:46:39.694Z,0.40
2017-12-19T01:49:13.973Z,0.40
2017-12-19T01:51:47.982Z,0.40
2017-12-19T01:54:23.450Z,0.50
2017-12-19T01:56:57.960Z,0.60
2017-12-19T01:59:32.389Z,0.60
2017-12-19T02:02:06.531Z,0.60
2017-12-19T02:04:40.676Z,0.50
2017-12-19T02:07:15.530Z,0.20
2017-12-19T02:09:49.269Z,0.30
2017-12-19T02:12:24.355Z,0.40
2017-12-19T02:14:58.385Z,0.50
2017-12-19T02:17:32.156Z,0.50
2017-12-19T02:20:06.105Z,0.20
2017-12-19T02:22:41.651Z,0.30
2017-12-19T02:25:15.823Z,0.40
2017-12-19T02:27:49.810Z,0.30
2017-12-19T02:30:24.316Z,0.30
2017-12-19T02:32:58.681Z,0.40
2017-12-19T02:35:33.350Z,0.40
2017-12-19T02:38:07.290Z,0.50
2017-12-19T02:40:41.510Z,0.50
2017-12-19T02:43:20.938Z,0.50
2017-12-19T02:45:56.434Z,0.40
2017-12-19T02:48:33.071Z,0.50
2017-12-19T02:51:08.064Z,0.50
2017-12-19T02:53:43.063Z,0.50
2017-12-19T02:56:18.793Z,0.50
2017-12-19T02:58:53.180Z,0.50
2017-12-19T03:01:26.997Z,0.60
2017-12-19T03:04:00.878Z,0.50
2017-12-19T03:06:35.296Z,0.50
2017-12-19T03:09:10.161Z,0.40
2017-12-19T03:11:44.084Z,0.40
2017-12-19T03:14:18.797Z,-0.10
2017-12-19T03:16:52.666Z,-0.10
2017-12-19T03:19:27.045Z,0.10
2017-12-19T03:22:01.131Z,0.20
2017-12-19T03:24:35.276Z,0.20
2017-12-19T03:27:09.203Z,0.30
2017-12-19T03:29:43.554Z,0.30
2017-12-19T03:32:17.714Z,0.40
2017-12-19T03:34:51.677Z,0.40
2017-12-19T03:37:26.298Z,0.40
2017-12-19T03:40:00.453Z,0.50
2017-12-19T03:42:34.603Z,0.50
2017-12-19T03:45:09.318Z,0.60
2017-12-19T03:47:44.494Z,0.60
2017-12-19T03:50:19.709Z,0.50
2017-12-19T03:52:53.595Z,0.50
2017-12-19T03:55:29.363Z,0.50
2017-12-19T03:58:04.267Z,0.50
2017-12-19T04:00:38.889Z,0.50
2017-12-19T04:03:14.844Z,0.50
2017-12-19T04:05:49.066Z,0.50
2017-12-19T04:08:23.624Z,0.60
2017-12-19T04:10:57.836Z,0.60
2017-12-19T04:13:31.591Z,0.60
2017-12-19T04:16:05.735Z,0.60
2017-12-19T04:18:40.650Z,0.70
2017-12-19T04:21:15.605Z,0.80
2017-12-19T04:23:50.535Z,0.70
2017-12-19T04:26:24.651Z,0.70
2017-12-19T04:28:58.897Z,0.60
2017-12-19T04:31:33.904Z,0.60
2017-12-19T04:34:08.744Z,0.60
2017-12-19T04:36:43.938Z,0.60
2017-12-19T04:39:19.527Z,0.60
2017-12-19T04:41:53.765Z,0.60
2017-12-19T04:44:29.142Z,0.70
2017-12-19T04:47:03.846Z,0.00
2017-12-19T04:49:38.059Z,0.00
2017-12-19T04:52:12.139Z,0.30
2017-12-19T04:54:46.432Z,0.40
2017-12-19T04:57:20.203Z,0.60
2017-12-19T04:59:55.139Z,0.70
2017-12-19T05:02:29.512Z,0.70
2017-12-19T05:05:03.161Z,0.30
2017-12-19T05:07:37.887Z,0.10
2017-12-19T05:10:12.323Z,0.20
2017-12-19T05:12:47.158Z,0.30
2017-12-19T05:15:21.677Z,0.30
2017-12-19T05:17:55.936Z,0.20
2017-12-19T05:20:30.666Z,0.30
2017-12-19T05:23:05.384Z,0.50
2017-12-19T05:25:39.537Z,0.40
2017-12-19T05:28:13.656Z,0.60
2017-12-19T05:30:47.543Z,0.60
2017-12-19T05:33:21.651Z,0.70
2017-12-19T05:35:56.558Z,0.70
2017-12-19T05:38:31.261Z,0.70
2017-12-19T05:41:05.428Z,0.80
2017-12-19T05:43:39.578Z,0.80
2017-12-19T05:46:13.765Z,0.90
2017-12-19T05:48:48.103Z,0.90
2017-12-19T05:51:22.220Z,0.90
2017-12-19T05:53:57.132Z,0.70
2017-12-19T05:56:31.051Z,0.60
2017-12-19T05:59:05.320Z,0.60
2017-12-19T06:01:40.925Z,0.70
2017-12-19T06:04:15.298Z,0.70
2017-12-19T06:06:49.294Z,0.60
2017-12-19T06:09:23.200Z,0.70
2017-12-19T06:11:57.917Z,0.70
2017-12-19T06:14:31.731Z,0.60
2017-12-19T06:17:05.864Z,0.50
2017-12-19T06:19:41.628Z,0.50
2017-12-19T06:22:15.943Z,0.60
2017-12-19T06:24:50.870Z,0.30
2017-12-19T06:27:24.714Z,0.30
2017-12-19T06:29:58.625Z,0.40
2017-12-19T06:32:32.541Z,0.50
2017-12-19T06:35:06.655Z,0.60
2017-12-19T06:37:41.548Z,0.80
2017-12-19T06:40:18.746Z,0.70
2017-12-19T06:42:53.004Z,0.70
2017-12-19T06:45:27.220Z,0.30
2017-12-19T06:48:02.088Z,0.20
2017-12-19T06:50:36.531Z,0.20
2017-12-19T06:53:11.836Z,0.10
2017-12-19T06:55:45.756Z,0.10
2017-12-19T06:58:20.485Z,0.10
2017-12-19T07:00:55.430Z,0.10
2017-12-19T07:03:30.528Z,0.30
2017-12-19T07:06:04.739Z,0.30
2017-12-19T07:08:40.346Z,0.30
2017-12-19T07:11:15.648Z,0.30
2017-12-19T07:13:50.003Z,0.30
2017-12-19T07:16:24.287Z,0.30
2017-12-19T07:18:58.499Z,0.40
2017-12-19T07:21:33.495Z,0.40
2017-12-19T07:24:07.318Z,0.40
2017-12-19T07:26:42.768Z,0.50
2017-12-19T07:29:16.736Z,0.40
2017-12-19T07:31:51.505Z,0.60
2017-12-19T07:34:26.473Z,0.50
2017-12-19T07:37:00.756Z,0.60
2017-12-19T07:39:36.031Z,0.70
2017-12-19T07:42:11.363Z,0.80
2017-12-19T07:44:45.284Z,0.60
2017-12-19T07:47:20.260Z,0.40
2017-12-19T07:49:54.155Z,0.40
2017-12-19T07:52:28.255Z,0.40
2017-12-19T07:55:03.875Z,0.20
2017-12-19T08:02:12.474Z,0.30
2017-12-19T08:04:46.826Z,0.50
2017-12-19T08:07:21.748Z,0.40
2017-12-19T08:09:56.324Z,0.40
2017-12-19T08:12:31.388Z,0.40
2017-12-19T08:15:05.545Z,0.20
2017-12-19T08:17:39.768Z,0.40
2017-12-19T08:20:13.931Z,0.50
2017-12-19T08:22:49.964Z,0.30
2017-12-19T08:25:24.190Z,0.30
2017-12-19T08:27:59.163Z,0.30
2017-12-19T08:30:33.126Z,0.20
2017-12-19T08:33:07.596Z,0.40
2017-12-19T08:35:41.731Z,0.40
2017-12-19T08:38:17.007Z,0.40
2017-12-19T08:40:51.969Z,0.70
2017-12-19T08:43:25.994Z,0.70
2017-12-19T08:46:00.228Z,0.90
2017-12-19T08:48:34.271Z,0.80
2017-12-19T08:51:08.450Z,0.80
2017-12-19T08:53:43.003Z,0.70
2017-12-19T08:56:19.191Z,0.70
2017-12-19T08:58:53.261Z,0.70
2017-12-19T09:01:27.305Z,0.10
2017-12-19T09:04:01.267Z,-0.10
2017-12-19T09:06:35.665Z,0.10
2017-12-19T09:09:09.895Z,0.30
2017-12-19T09:11:44.500Z,0.50
2017-12-19T09:14:18.948Z,0.50
2017-12-19T09:16:53.237Z,0.50
2017-12-19T09:19:28.079Z,0.50
2017-12-19T09:22:02.998Z,0.50
2017-12-19T09:24:37.108Z,0.70
2017-12-19T09:27:10.997Z,0.70
2017-12-19T09:29:45.308Z,1.00
2017-12-19T09:32:19.464Z,1.20
2017-12-19T09:34:53.366Z,1.00
2017-12-19T09:37:27.580Z,0.40
2017-12-19T09:40:02.661Z,0.70
2017-12-19T09:42:36.798Z,0.70
2017-12-19T09:45:11.694Z,1.00
2017-12-19T09:47:45.820Z,0.90
2017-12-19T09:50:19.925Z,1.00
2017-12-19T09:52:54.147Z,1.30
2017-12-19T09:55:28.371Z,1.50
2017-12-19T09:58:02.571Z,1.60
2017-12-19T10:00:36.754Z,1.80
2017-12-19T10:03:11.531Z,1.90
2017-12-19T10:05:45.696Z,1.80
2017-12-19T10:08:19.507Z,1.40
2017-12-19T10:10:53.783Z,1.50
2017-12-19T10:13:27.837Z,1.50
2017-12-19T10:16:01.658Z,1.20
2017-12-19T10:18:35.623Z,1.10
2017-12-19T10:21:09.756Z,1.40
2017-12-19T10:23:43.899Z,1.50
2017-12-19T10:26:18.732Z,1.60
2017-12-19T10:28:53.699Z,1.20
2017-12-19T10:31:28.367Z,1.40
2017-12-19T10:34:02.651Z,1.40
2017-12-19T10:36:37.234Z,1.60
2017-12-19T10:39:11.222Z,1.90
2017-12-19T10:41:46.278Z,1.70
2017-12-19T10:44:20.336Z,1.60
2017-12-19T10:46:54.571Z,1.50
2017-12-19T10:49:28.707Z,1.10
2017-12-19T10:52:03.205Z,1.10
2017-12-19T10:54:37.989Z,1.20
2017-12-19T10:57:12.397Z,1.20
2017-12-19T10:59:46.269Z,1.30
2017-12-19T11:02:20.817Z,1.30
2017-12-19T11:04:55.618Z,1.10
2017-12-19T11:07:29.532Z,1.30
2017-12-19T11:10:05.296Z,1.50
2017-12-19T11:12:40.080Z,1.50
2017-12-19T11:15:14.106Z,1.40
2017-12-19T11:17:48.131Z,1.50
2017-12-19T11:20:22.709Z,1.60
2017-12-19T11:22:57.393Z,1.90
2017-12-19T11:25:32.398Z,1.90
2017-12-19T11:28:06.589Z,1.90
2017-12-19T11:30:40.698Z,1.70
2017-12-19T11:33:15.795Z,2.10
2017-12-19T11:35:50.227Z,2.10
2017-12-19T11:38:24.473Z,1.90
2017-12-19T11:41:00.479Z,2.10
2017-12-19T11:43:35.225Z,2.30
2017-12-19T11:46:09.708Z,2.30
2017-12-19T11:48:43.675Z,2.50
2017-12-19T11:51:17.733Z,2.50
2017-12-19T11:53:52.572Z,2.60
2017-12-19T11:56:26.955Z,2.60
2017-12-19T11:59:00.898Z,2.70
2017-12-19T12:01:36.432Z,2.10
2017-12-19T12:04:11.563Z,2.10
2017-12-19T12:06:47.593Z,2.20
2017-12-19T12:09:22.218Z,2.30
2017-12-19T12:11:56.568Z,2.30
2017-12-19T12:14:30.825Z,2.40
2017-12-19T12:17:05.361Z,2.60
2017-12-19T12:19:39.913Z,2.40
2017-12-19T12:22:15.999Z,2.40
2017-12-19T12:24:50.167Z,2.60
2017-12-19T12:27:24.014Z,2.70
2017-12-19T12:29:58.171Z,2.20
2017-12-19T12:32:32.604Z,2.00
2017-12-19T12:35:06.634Z,2.20
2017-12-19T12:37:41.462Z,2.00
2017-12-19T12:40:15.281Z,2.00
2017-12-19T12:42:49.242Z,1.90
2017-12-19T12:45:23.146Z,2.10
2017-12-19T12:47:57.302Z,2.00
2017-12-19T12:50:31.443Z,2.10
2017-12-19T12:53:05.892Z,2.00
2017-12-19T12:55:41.438Z,1.90
2017-12-19T12:58:15.738Z,1.90
2017-12-19T13:00:49.986Z,2.10
2017-12-19T13:03:24.451Z,1.90
2017-12-19T13:05:58.796Z,2.00
2017-12-19T13:08:32.955Z,1.90
2017-12-19T13:11:08.941Z,1.90
2017-12-19T13:13:43.679Z,2.00
2017-12-19T13:16:17.853Z,2.00
2017-12-19T13:18:54.123Z,1.80
2017-12-19T13:21:28.391Z,1.80
2017-12-19T13:24:03.246Z,2.00
2017-12-19T13:26:38.493Z,1.90
2017-12-19T13:29:13.565Z,1.90
2017-12-19T13:31:48.477Z,1.80
2017-12-19T13:34:22.448Z,1.90
2017-12-19T13:36:57.342Z,1.60
2017-12-19T13:39:32.010Z,1.60
2017-12-19T13:42:05.925Z,1.60
2017-12-19T13:44:39.993Z,1.80
2017-12-19T13:47:14.036Z,2.00
2017-12-19T13:49:48.251Z,2.20
2017-12-19T13:52:22.502Z,2.30
2017-12-19T13:54:57.163Z,1.90
2017-12-19T13:57:31.381Z,1.80
2017-12-19T14:00:05.783Z,1.80
2017-12-19T14:02:39.955Z,1.90
2017-12-19T14:05:14.675Z,1.90
2017-12-19T14:07:48.564Z,1.60
2017-12-19T14:10:22.320Z,1.60
2017-12-19T14:12:56.886Z,1.70
2017-12-19T14:15:31.153Z,1.90
2017-12-19T14:18:05.577Z,2.10
2017-12-19T14:20:40.498Z,2.30
2017-12-19T14:23:14.846Z,2.30
2017-12-19T14:25:49.249Z,2.40
2017-12-19T14:28:23.316Z,2.40
2017-12-19T14:30:57.957Z,2.60
2017-12-19T14:33:32.084Z,2.50
2017-12-19T14:36:06.422Z,2.60
2017-12-19T14:38:40.568Z,2.60
2017-12-19T14:41:14.715Z,2.60
2017-12-19T14:43:49.893Z,2.60
2017-12-19T14:46:24.437Z,2.60
2017-12-19T14:48:58.646Z,2.70
2017-12-19T14:51:32.970Z,2.70
2017-12-19T14:54:07.383Z,2.70
2017-12-19T14:56:42.275Z,2.60
2017-12-19T14:59:16.437Z,2.60
2017-12-19T15:01:50.728Z,2.60
2017-12-19T15:04:24.764Z,2.60
2017-12-19T15:06:58.735Z,2.70
2017-12-19T15:09:32.534Z,2.30
2017-12-19T15:12:07.145Z,2.10
2017-12-19T15:14:40.907Z,2.10
2017-12-19T15:17:14.952Z,2.20
2017-12-19T15:19:48.926Z,2.40
2017-12-19T15:22:23.315Z,2.40
2017-12-19T15:24:57.317Z,2.40
2017-12-19T15:27:31.470Z,1.90
2017-12-19T15:30:06.358Z,2.10
2017-12-19T15:32:41.295Z,2.10
2017-12-19T15:35:15.526Z,2.20
2017-12-19T15:37:49.237Z,2.20
2017-12-19T15:40:23.381Z,2.20
2017-12-19T15:42:57.656Z,2.30
2017-12-19T15:45:31.434Z,2.40
2017-12-19T15:48:05.641Z,2.30
2017-12-19T15:50:39.572Z,2.00
2017-12-19T15:53:13.587Z,1.90
2017-12-19T15:55:48.249Z,1.90
2017-12-19T15:58:23.048Z,1.80
2017-12-19T16:00:57.114Z,1.70
2017-12-19T16:03:30.974Z,1.80
2017-12-19T16:06:05.053Z,1.60
2017-12-19T16:08:40.933Z,1.20
2017-12-19T16:11:15.146Z,1.20
2017-12-19T16:13:49.222Z,1.20
2017-12-19T16:16:23.336Z,1.30
2017-12-19T16:18:57.958Z,1.40
2017-12-19T16:21:31.806Z,1.50
2017-12-19T16:24:06.097Z,1.70
2017-12-19T16:26:40.084Z,1.50
2017-12-19T16:29:14.271Z,1.70
2017-12-19T16:31:48.120Z,1.80
2017-12-19T16:34:21.993Z,1.80
2017-12-19T16:36:56.051Z,1.70
2017-12-19T16:39:31.288Z,1.90
2017-12-19T16:42:05.247Z,1.90
2017-12-19T16:44:39.516Z,2.00
2017-12-19T16:47:13.351Z,2.10
2017-12-19T16:49:48.417Z,2.20
2017-12-19T16:52:23.208Z,2.00
2017-12-19T16:54:57.142Z,2.00
2017-12-19T16:57:32.099Z,1.90
2017-12-19T17:00:06.348Z,1.60
2017-12-19T17:02:40.423Z,1.50
2017-12-19T17:05:15.377Z,1.60
2017-12-19T17:07:49.582Z,1.60
2017-12-19T17:10:23.916Z,1.60
2017-12-19T17:12:58.028Z,1.70
2017-12-19T17:15:32.119Z,1.70
2017-12-19T17:18:06.131Z,1.70
2017-12-19T17:20:39.965Z,1.70
2017-12-19T17:23:13.942Z,1.60
2017-12-19T17:25:48.078Z,1.60
2017-12-19T17:28:22.854Z,1.60
2017-12-19T17:30:56.769Z,1.50
2017-12-19T17:33:32.543Z,1.50
2017-12-19T17:36:06.510Z,1.50
2017-12-19T17:38:40.773Z,1.50
2017-12-19T17:41:15.448Z,1.80
2017-12-19T17:43:49.317Z,1.80
2017-12-19T17:46:23.839Z,1.90
2017-12-19T17:48:57.553Z,1.90
2017-12-19T17:51:31.313Z,1.90
2017-12-19T17:54:04.987Z,1.70
2017-12-19T17:56:38.837Z,1.50
2017-12-19T17:59:12.795Z,1.20
2017-12-19T18:01:46.775Z,1.10
2017-12-19T18:04:20.522Z,1.10
2017-12-19T18:06:54.387Z,1.00
2017-12-19T18:09:28.039Z,1.10
2017-12-19T18:12:01.871Z,1.20
2017-12-19T18:14:35.608Z,1.20
2017-12-19T18:17:09.388Z,1.10
2017-12-19T18:19:43.301Z,1.10
2017-12-19T18:22:17.780Z,1.30
2017-12-19T18:24:51.637Z,1.30
2017-12-19T18:27:26.181Z,1.40
2017-12-19T18:30:00.025Z,1.30
2017-12-19T18:32:33.695Z,1.20
2017-12-19T18:35:07.454Z,1.30
2017-12-19T18:37:41.900Z,1.00
2017-12-19T18:40:15.503Z,1.00
2017-12-19T18:42:49.170Z,0.90
2017-12-19T18:45:22.928Z,1.00
2017-12-19T18:47:57.310Z,0.90
2017-12-19T18:50:30.893Z,0.80
2017-12-19T18:53:04.653Z,0.90
2017-12-19T18:55:38.914Z,0.60
2017-12-19T18:58:12.601Z,0.60
2017-12-19T19:00:46.414Z,0.80
2017-12-19T19:03:19.965Z,0.80
2017-12-19T19:05:53.493Z,0.80
2017-12-19T19:08:27.196Z,0.80
2017-12-19T19:11:00.755Z,0.80
2017-12-19T19:13:34.363Z,0.90
2017-12-19T19:16:07.918Z,1.00
2017-12-19T19:18:41.487Z,1.00
2017-12-19T19:21:15.378Z,1.10
2017-12-19T19:23:48.989Z,1.00
2017-12-19T19:26:22.582Z,0.90
2017-12-19T19:28:56.383Z,0.70
2017-12-19T19:31:30.217Z,0.60
2017-12-19T19:34:03.868Z,0.50
2017-12-19T19:36:37.604Z,0.40
2017-12-19T19:39:11.467Z,0.50
2017-12-19T19:41:45.232Z,0.60
2017-12-19T19:44:19.032Z,0.70
2017-12-19T19:46:53.616Z,0.70
2017-12-19T19:49:27.529Z,0.70
2017-12-19T19:52:01.267Z,0.60
2017-12-19T19:54:34.960Z,0.60
2017-12-19T19:57:08.750Z,0.60
2017-12-19T19:59:42.402Z,0.60
2017-12-19T20:02:16.158Z,0.60
2017-12-19T20:04:50.748Z,0.70
2017-12-19T20:07:24.396Z,0.70
2017-12-19T20:09:57.998Z,0.60
2017-12-19T20:12:31.828Z,0.50
2017-12-19T20:15:05.604Z,0.50
2017-12-19T20:17:39.313Z,0.50
2017-12-19T20:20:13.133Z,0.50
2017-12-19T20:22:46.790Z,0.60
2017-12-19T20:25:20.389Z,0.60
2017-12-19T20:27:54.101Z,0.70
2017-12-19T20:30:27.749Z,0.70
2017-12-19T20:33:02.341Z,0.70
2017-12-19T20:35:36.059Z,0.60
2017-12-19T20:38:10.574Z,0.70
2017-12-19T20:40:44.356Z,0.70
2017-12-19T20:43:18.181Z,0.60
2017-12-19T20:45:51.778Z,0.60
2017-12-19T20:48:25.509Z,0.60
2017-12-19T20:50:59.957Z,0.70
2017-12-19T20:53:33.524Z,0.60
2017-12-19T20:56:13.169Z,0.70
2017-12-19T20:58:46.726Z,0.70
2017-12-19T21:01:20.340Z,0.60
2017-12-19T21:03:54.132Z,0.60
2017-12-19T21:06:27.718Z,0.70
2017-12-19T21:09:01.428Z,0.70
2017-12-19T21:11:35.099Z,0.50
2017-12-19T21:14:08.732Z,0.60
2017-12-19T21:16:42.486Z,0.40
2017-12-19T21:19:16.232Z,0.40
2017-12-19T21:21:49.884Z,0.50
2017-12-19T21:24:23.647Z,0.50
2017-12-19T21:26:57.310Z,0.60
2017-12-19T21:29:31.034Z,0.50
2017-12-19T21:32:04.665Z,0.30
2017-12-19T21:34:38.494Z,0.20
2017-12-19T21:37:12.313Z,0.10
2017-12-19T21:39:45.973Z,0.10
2017-12-19T21:42:19.639Z,0.10
2017-12-19T21:44:54.197Z,0.10
2017-12-19T21:47:30.712Z,0.10
2017-12-19T21:50:05.660Z,0.20
2017-12-19T21:52:39.477Z,0.20
2017-12-19T21:55:14.818Z,0.10
2017-12-19T21:57:51.936Z,0.10
2017-12-19T22:00:25.780Z,0.00
2017-12-19T22:02:59.447Z,0.00
2017-12-19T22:05:35.658Z,-0.10
2017-12-19T22:08:09.601Z,0.10
2017-12-19T22:10:43.524Z,0.10
2017-12-19T22:13:17.236Z,0.10
2017-12-19T22:15:51.868Z,0.20
2017-12-19T22:18:25.540Z,0.20
2017-12-19T22:21:00.360Z,0.40
2017-12-19T22:23:35.007Z,0.70
2017-12-19T22:26:10.196Z,0.70
2017-12-19T22:28:46.371Z,0.90
2017-12-19T22:31:21.822Z,0.90
2017-12-19T22:33:55.618Z,1.00
2017-12-19T22:36:30.335Z,1.20
2017-12-19T22:39:04.814Z,1.30
2017-12-19T22:41:38.979Z,1.30
2017-12-19T22:44:15.556Z,1.40
2017-12-19T22:46:49.330Z,1.50
2017-12-19T22:49:22.926Z,1.20
2017-12-19T22:51:59.106Z,1.30
2017-12-19T22:54:32.688Z,1.30
2017-12-19T22:57:06.492Z,1.30
2017-12-19T22:59:40.132Z,1.40
2017-12-19T23:02:13.827Z,1.50
2017-12-19T23:04:47.419Z,1.50
2017-12-19T23:07:21.099Z,1.50
2017-12-19T23:09:54.842Z,1.40
2017-12-19T23:12:29.147Z,1.10
2017-12-19T23:15:02.803Z,1.10
2017-12-19T23:17:36.473Z,1.20
2017-12-19T23:20:10.091Z,1.30
2017-12-19T23:22:43.814Z,1.30
2017-12-19T23:25:18.274Z,1.40
2017-12-19T23:27:52.754Z,1.50
2017-12-19T23:30:26.478Z,1.50
2017-12-19T23:33:00.138Z,1.50
2017-12-19T23:35:33.855Z,1.50
2017-12-19T23:38:07.543Z,1.50
2017-12-19T23:40:41.284Z,1.70
2017-12-19T23:43:15.501Z,1.60
2017-12-19T23:45:49.158Z,1.60
2017-12-19T23:48:22.827Z,1.50
2017-12-19T23:50:56.567Z,1.50
2017-12-19T23:53:30.233Z,1.50
2017-12-19T23:56:03.874Z,1.00
2017-12-19T23:58:37.427Z,1.10
